EGMC/SEN METAR and TAF weather

Enter ICAO airport designator
Station Type Date Time Source
EGMC METAR 2020/01/20 15:50 UTC NOAA

EGMC 201550Z 22006KT CAVOK 05/01 Q1046


Station Type Date Time Source
EGMC Decoded METAR 2020/01/20 15:50 UTC NOAA

Southend-On-Sea , United Kingdom (EGMC) 51-34N 000-42E
Jan 20, 2020 - 10:50 AM EST / 2020.01.20 1550 UTC
Wind: from the SW (220 degrees) at 7 MPH (6 KT):0
Visibility: greater than 7 mile(s):0
Temperature: 41 F (5 C)
Dew Point: 33 F (1 C)
Relative Humidity: 75%
Pressure (altimeter): 30.89 in. Hg (1046 hPa)
ob: EGMC 201550Z 22006KT CAVOK 05/01 Q1046
cycle: 16

Station Type Date Time Source
EGMC TAF 2016/04/18 18:00 UTC NOAA

TAF EGMC 181658Z 1818/1903 28008KT 9999 BKN045

Example: see airport list